Time;durP1;ratioP1;P1;durP2;ratioP2;P2;SDS_P1;SDS_P2;PMS_P1;PMS_P2;Temp;Humidity;BMP_temperature;BMP_pressure;BME280_temperature;BME280_humidity;BME280_pressure;Samples;Min_cycle;Max_cycle;Signal;HPM_P1;HPM_P2
2022/06/14 00:01:27;;;;;;;0.00;0.00;;;15.20;69.50;;;;;;5090693;28;20478;-71
2022/06/14 00:03:53;;;;;;;0.00;0.00;;;15.20;69.50;;;;;;5108709;28;20023;-72
2022/06/14 00:06:22;;;;;;;0.00;0.00;;;15.20;69.40;;;;;;5109022;28;20486;-73
2022/06/14 00:08:48;;;;;;;0.00;0.00;;;15.20;69.40;;;;;;5108848;28;20028;-72
2022/06/14 00:11:17;;;;;;;0.00;0.00;;;15.30;69.50;;;;;;5108780;28;20076;-72
2022/06/14 00:13:44;;;;;;;0.00;0.00;;;15.30;69.60;;;;;;5108614;28;20024;-71
2022/06/14 00:16:11;;;;;;;0.00;0.00;;;15.30;69.50;;;;;;5108621;28;20040;-74
2022/06/14 00:18:37;;;;;;;0.00;0.00;;;15.30;69.50;;;;;;5108662;28;20023;-73
2022/06/14 00:21:03;;;;;;;0.00;0.00;;;15.30;69.40;;;;;;5089732;28;20024;-73
2022/06/14 00:23:29;;;;;;;0.00;0.00;;;15.30;69.40;;;;;;5090241;28;20057;-71
2022/06/14 00:25:57;;;;;;;0.00;0.00;;;15.30;69.40;;;;;;5108447;28;20050;-73
2022/06/14 00:28:25;;;;;;;0.00;0.00;;;15.40;69.50;;;;;;5108423;28;20066;-74
2022/06/14 00:30:55;;;;;;;0.00;0.00;;;15.40;69.50;;;;;;5108424;28;20028;-73
2022/06/14 00:33:21;;;;;;;0.00;0.00;;;15.40;69.50;;;;;;5108481;28;20042;-72
2022/06/14 00:35:47;;;;;;;0.00;0.00;;;15.40;69.40;;;;;;5090268;28;20458;-74
2022/06/14 00:38:13;;;;;;;0.00;0.00;;;15.40;69.40;;;;;;5108459;28;20032;-72
2022/06/14 00:40:41;;;;;;;0.00;0.00;;;15.40;69.40;;;;;;5108787;28;20469;-74
2022/06/14 00:43:14;;;;;;;0.00;0.00;;;15.30;69.30;;;;;;5108288;28;20034;-72
2022/06/14 00:45:39;;;;;;;0.00;0.00;;;15.30;69.30;;;;;;5108103;28;20027;-74
2022/06/14 00:48:18;;;;;;;0.00;0.00;;;15.30;69.40;;;;;;5108140;28;20098;-72
2022/06/14 00:51:02;;;;;;;0.00;0.00;;;15.30;69.40;;;;;;5108217;28;20034;-72
2022/06/14 00:53:35;;;;;;;0.00;0.00;;;15.30;69.40;;;;;;5108182;28;20015;-72
2022/06/14 00:56:05;;;;;;;0.00;0.00;;;15.30;69.40;;;;;;5108039;28;20115;-73
2022/06/14 00:58:43;;;;;;;0.00;0.00;;;15.30;69.50;;;;;;5108004;28;20427;-72
2022/06/14 01:01:36;;;;;;;0.00;0.00;;;15.30;69.50;;;;;;5108496;28;20512;-72
2022/06/14 01:04:11;;;;;;;0.00;0.00;;;15.30;69.50;;;;;;5104174;28;20504;-73
2022/06/14 01:06:48;;;;;;;0.00;0.00;;;15.30;69.40;;;;;;5089591;28;20072;-72
2022/06/14 01:09:29;;;;;;;0.00;0.00;;;15.30;69.40;;;;;;5107866;28;20023;-73
2022/06/14 01:12:14;;;;;;;0.00;0.00;;;15.30;69.50;;;;;;5108393;28;20015;-72
2022/06/14 01:15:11;;;;;;;0.00;0.00;;;15.30;69.50;;;;;;5107948;28;20384;-73
2022/06/14 01:17:43;;;;;;;0.00;0.00;;;15.30;69.50;;;;;;5107901;28;20031;-73
2022/06/14 01:20:11;;;;;;;0.00;0.00;;;15.30;69.40;;;;;;5107886;28;20381;-73
2022/06/14 01:22:37;;;;;;;0.00;0.00;;;15.30;69.40;;;;;;5089880;28;20028;-72
2022/06/14 01:25:04;;;;;;;0.00;0.00;;;15.30;69.40;;;;;;5107944;28;20549;-73
2022/06/14 01:27:31;;;;;;;;;;;15.20;69.40;;;;;;5089767;28;20497;-74
2022/06/14 01:30:13;;;;;;;0.00;0.00;;;15.20;69.40;;;;;;5107914;28;19910;-73
2022/06/14 01:32:49;;;;;;;0.00;0.00;;;15.20;69.40;;;;;;5108895;28;20077;-72
2022/06/14 01:35:21;;;;;;;0.00;0.00;;;15.20;69.40;;;;;;5111834;28;20317;-72
2022/06/14 01:37:50;;;;;;;0.00;0.00;;;15.20;69.40;;;;;;5111832;28;20066;-74
2022/06/14 01:40:17;;;;;;;0.00;0.00;;;15.20;69.40;;;;;;5111684;28;20041;-72
2022/06/14 01:43:10;;;;;;;0.00;0.00;;;15.20;69.40;;;;;;5111643;28;20039;-72
2022/06/14 01:45:42;;;;;;;0.00;0.00;;;15.20;69.40;;;;;;5093183;28;20108;-74
2022/06/14 01:48:15;;;;;;;0.00;0.00;;;15.10;69.40;;;;;;5111490;28;20099;-74
2022/06/14 01:54:21;;;;;;;0.00;0.00;;;15.10;69.40;;;;;;5111442;28;20050;-72
2022/06/14 01:56:49;;;;;;;0.00;0.00;;;15.10;69.40;;;;;;5111392;28;20058;-74
2022/06/14 01:59:46;;;;;;;0.00;0.00;;;15.10;69.40;;;;;;5111283;28;20035;-71
2022/06/14 02:02:35;;;;;;;0.00;0.00;;;15.00;69.30;;;;;;5111322;28;20375;-74
2022/06/14 02:05:16;;;;;;;0.00;0.00;;;15.00;69.40;;;;;;5110948;28;20043;-72
2022/06/14 02:07:50;;;;;;;0.00;0.00;;;15.00;69.40;;;;;;5111157;28;20027;-73
2022/06/14 02:10:33;;;;;;;0.00;0.00;;;15.00;69.40;;;;;;5111174;28;20065;-71
2022/06/14 02:13:06;;;;;;;0.00;0.00;;;15.00;69.50;;;;;;5111155;28;20019;-72
2022/06/14 02:16:06;;;;;;;0.00;0.00;;;15.00;69.40;;;;;;5111003;28;20129;-73
2022/06/14 02:18:40;;;;;;;0.00;0.00;;;14.90;69.40;;;;;;5070236;28;20402;-74
2022/06/14 02:21:28;;;;;;;0.00;0.00;;;14.90;69.30;;;;;;5110990;28;20417;-73
2022/06/14 02:24:06;;;;;;;0.00;0.00;;;14.90;69.40;;;;;;5110168;28;20059;-72
2022/06/14 02:26:37;;;;;;;0.00;0.00;;;14.90;69.40;;;;;;5110883;28;20496;-73
2022/06/14 02:29:06;;;;;;;0.00;0.00;;;14.90;69.40;;;;;;5110713;28;20061;-73
2022/06/14 02:31:43;;;;;;;0.00;0.00;;;14.90;69.40;;;;;;5110750;28;20401;-72
2022/06/14 02:34:25;;;;;;;0.00;0.00;;;14.90;69.40;;;;;;5110841;28;20039;-74
2022/06/14 02:37:04;;;;;;;0.00;0.00;;;14.80;69.40;;;;;;5110616;28;20023;-72
2022/06/14 02:39:45;;;;;;;0.00;0.00;;;14.80;69.30;;;;;;5110600;28;20477;-73
2022/06/14 02:42:24;;;;;;;0.00;0.00;;;14.80;69.30;;;;;;5110385;28;20062;-71
2022/06/14 02:45:05;;;;;;;0.00;0.00;;;14.70;69.30;;;;;;5091454;28;20385;-72
2022/06/14 02:47:40;;;;;;;0.00;0.00;;;14.70;69.30;;;;;;5110520;28;20028;-74
2022/06/14 02:50:15;;;;;;;0.00;0.00;;;14.70;69.40;;;;;;5110428;28;20024;-72
2022/06/14 02:52:52;;;;;;;0.00;0.00;;;14.70;69.40;;;;;;5091946;28;20488;-72
2022/06/14 02:55:26;;;;;;;0.22;0.20;;;14.70;69.40;;;;;;5110340;28;20033;-71
2022/06/14 02:58:12;;;;;;;0.00;0.00;;;14.70;69.40;;;;;;5110361;28;20023;-73
2022/06/14 03:01:23;;;;;;;0.00;0.00;;;14.70;69.40;;;;;;5110289;28;20035;-71
2022/06/14 03:03:54;;;;;;;0.00;0.00;;;14.70;69.40;;;;;;5007287;28;20033;-72
2022/06/14 03:06:37;;;;;;;0.00;0.00;;;14.60;69.30;;;;;;5092200;28;20367;-71
2022/06/14 03:09:16;;;;;;;0.00;0.00;;;14.60;69.30;;;;;;5110060;28;20126;-72
2022/06/14 03:12:24;;;;;;;0.00;0.00;;;14.60;69.30;;;;;;5109985;28;20064;-72
2022/06/14 03:15:02;;;;;;;0.00;0.00;;;14.60;69.30;;;;;;5109862;28;20023;-72
2022/06/14 03:17:33;;;;;;;0.00;0.00;;;14.50;69.30;;;;;;5109902;28;20258;-72
2022/06/14 03:20:11;;;;;;;0.00;0.00;;;14.50;69.30;;;;;;5109897;28;20106;-73
2022/06/14 03:23:02;;;;;;;0.00;0.00;;;14.50;69.40;;;;;;5109849;28;20023;-73
2022/06/14 03:25:57;;;;;;;0.00;0.00;;;14.50;69.40;;;;;;5063936;28;20082;-72
2022/06/14 03:28:43;;;;;;;0.00;0.00;;;14.40;69.40;;;;;;5109718;28;20027;-71
2022/06/14 03:31:30;;;;;;;0.00;0.00;;;14.40;69.40;;;;;;5109703;28;20419;-73
2022/06/14 03:34:16;;;;;;;0.00;0.00;;;14.40;69.40;;;;;;5091199;28;20024;-72
2022/06/14 03:36:42;;;;;;;0.00;0.00;;;14.40;69.40;;;;;;5109481;28;20024;-72
2022/06/14 03:39:24;;;;;;;0.00;0.00;;;14.40;69.40;;;;;;5109485;28;20073;-72
2022/06/14 03:41:53;;;;;;;0.00;0.00;;;14.40;69.40;;;;;;5109465;28;20032;-73
2022/06/14 03:44:22;;;;;;;0.00;0.00;;;14.40;69.40;;;;;;5109272;28;20107;-72
2022/06/14 03:47:09;;;;;;;0.00;0.00;;;14.30;69.40;;;;;;5109255;28;20026;-72
2022/06/14 03:49:40;;;;;;;0.00;0.00;;;14.40;69.50;;;;;;5109260;28;20402;-70
2022/06/14 03:52:18;;;;;;;0.00;0.00;;;14.40;69.40;;;;;;5091684;28;20100;-72
2022/06/14 03:55:03;;;;;;;0.00;0.00;;;14.40;69.40;;;;;;5090797;28;20027;-71
2022/06/14 03:57:47;;;;;;;0.00;0.00;;;14.40;69.40;;;;;;5107842;28;20098;-73
2022/06/14 04:00:31;;;;;;;0.00;0.00;;;14.40;69.40;;;;;;5090657;28;20023;-72
2022/06/14 04:03:10;;;;;;;0.00;0.00;;;14.40;69.40;;;;;;5108692;28;20023;-73
2022/06/14 04:05:50;;;;;;;0.00;0.00;;;14.40;69.40;;;;;;5108640;28;20406;-73
2022/06/14 04:08:47;;;;;;;0.00;0.00;;;14.30;69.30;;;;;;5108800;28;20051;-71
2022/06/14 04:11:25;;;;;;;0.00;0.00;;;14.30;69.30;;;;;;5108871;28;20020;-71
2022/06/14 04:14:41;;;;;;;0.00;0.00;;;14.30;69.40;;;;;;5108828;28;20022;-72
2022/06/14 04:17:38;;;;;;;0.00;0.00;;;14.20;69.40;;;;;;5065400;28;20384;-72
2022/06/14 04:20:37;;;;;;;0.00;0.00;;;14.20;69.40;;;;;;5108692;28;20019;-71
2022/06/14 04:23:32;;;;;;;0.00;0.00;;;14.20;69.40;;;;;;5108623;28;20016;-72
2022/06/14 04:26:22;;;;;;;0.00;0.00;;;14.20;69.40;;;;;;5108535;28;20016;-72
2022/06/14 04:28:57;;;;;;;0.00;0.00;;;14.20;69.50;;;;;;5108446;28;20032;-72
2022/06/14 04:31:34;;;;;;;0.00;0.00;;;14.30;69.60;;;;;;5108584;28;20030;-73
2022/06/14 04:34:11;;;;;;;0.00;0.00;;;14.30;69.60;;;;;;5108493;28;20021;-73
2022/06/14 04:36:44;;;;;;;0.00;0.00;;;14.40;69.60;;;;;;5090161;28;20084;-72
2022/06/14 04:39:19;;;;;;;0.00;0.00;;;14.40;69.60;;;;;;5108412;28;20024;-73
2022/06/14 04:41:56;;;;;;;0.00;0.00;;;14.50;69.60;;;;;;5108350;28;20028;-73
2022/06/14 04:44:37;;;;;;;0.00;0.00;;;14.50;69.60;;;;;;5108174;28;20031;-73
2022/06/14 04:47:39;;;;;;;0.00;0.00;;;14.60;69.60;;;;;;5108187;28;20137;-70
2022/06/14 04:50:12;;;;;;;0.00;0.00;;;14.60;69.50;;;;;;5089927;28;20441;-72
2022/06/14 04:52:44;;;;;;;0.00;0.00;;;14.60;69.50;;;;;;5089873;28;20079;-72
2022/06/14 04:55:15;;;;;;;0.00;0.00;;;14.70;69.50;;;;;;5107961;28;20035;-71
2022/06/14 04:57:50;;;;;;;0.00;0.00;;;14.70;69.50;;;;;;5108068;28;20028;-71
2022/06/14 05:00:20;;;;;;;0.00;0.00;;;14.70;69.50;;;;;;5089699;28;20032;-71
2022/06/14 05:02:54;;;;;;;0.00;0.00;;;14.70;69.40;;;;;;5108004;28;20493;-72
2022/06/14 05:05:23;;;;;;;0.00;0.00;;;14.70;69.50;;;;;;5107820;28;20143;-73
2022/06/14 05:08:02;;;;;;;0.00;0.00;;;14.70;69.60;;;;;;5089138;28;20204;-74
2022/06/14 05:10:35;;;;;;;5.72;0.45;;;14.80;69.60;;;;;;5107879;28;20546;-72
2022/06/14 05:13:27;;;;;;;0.00;0.00;;;14.90;69.60;;;;;;5109591;28;20031;-73
2022/06/14 05:16:03;;;;;;;0.00;0.00;;;14.90;69.50;;;;;;5107713;28;20065;-72
2022/06/14 05:18:46;;;;;;;0.13;0.10;;;15.00;69.50;;;;;;5107849;28;20472;-71
2022/06/14 05:21:21;;;;;;;0.00;0.00;;;15.10;69.50;;;;;;5107876;28;20032;-72
2022/06/14 05:23:50;;;;;;;0.00;0.00;;;15.10;69.70;;;;;;5089618;28;20440;-71
2022/06/14 05:26:22;;;;;;;0.00;0.00;;;15.10;69.80;;;;;;5107620;28;20015;-73
2022/06/14 05:29:25;;;;;;;0.00;0.00;;;15.20;69.70;;;;;;5107651;28;20046;-71
2022/06/14 05:31:57;;;;;;;0.00;0.00;;;15.30;69.60;;;;;;5107688;28;20058;-72
2022/06/14 05:34:48;;;;;;;0.00;0.00;;;15.40;69.60;;;;;;5107696;28;20020;-71
2022/06/14 05:37:34;;;;;;;0.00;0.00;;;15.50;69.70;;;;;;5107570;28;20029;-73
2022/06/14 05:40:20;;;;;;;0.00;0.00;;;15.50;69.50;;;;;;5106225;28;20088;-72
2022/06/14 05:42:58;;;;;;;0.10;0.10;;;15.50;69.60;;;;;;5107514;28;20024;-71
2022/06/14 05:45:25;;;;;;;0.00;0.00;;;15.60;69.70;;;;;;5107356;28;20028;-74
2022/06/14 05:48:00;;;;;;;0.00;0.00;;;15.60;69.60;;;;;;5107501;28;20059;-73
2022/06/14 05:50:33;;;;;;;0.00;0.00;;;15.80;69.60;;;;;;5107447;28;20023;-73
2022/06/14 05:53:11;;;;;;;0.00;0.00;;;15.80;69.60;;;;;;5107436;28;20019;-71
2022/06/14 05:55:45;;;;;;;0.00;0.00;;;15.80;69.60;;;;;;5107753;28;20454;-68
2022/06/14 05:58:24;;;;;;;0.00;0.00;;;15.80;69.40;;;;;;5107113;28;20110;-72
2022/06/14 06:00:54;;;;;;;0.00;0.00;;;15.80;69.40;;;;;;5107117;28;20031;-73
2022/06/14 06:03:45;;;;;;;0.00;0.00;;;15.90;69.40;;;;;;5107325;28;20072;-74
2022/06/14 06:06:21;;;;;;;0.00;0.00;;;15.90;69.50;;;;;;5107088;28;20130;-71
2022/06/14 06:08:52;;;;;;;;;;;16.00;69.70;;;;;;5107405;28;20035;-72
2022/06/14 06:11:24;;;;;;;0.00;0.00;;;16.10;69.60;;;;;;5107239;28;19910;-73
2022/06/14 06:13:57;;;;;;;0.00;0.00;;;16.20;69.60;;;;;;5107431;28;20016;-73
2022/06/14 06:16:52;;;;;;;0.00;0.00;;;16.20;69.50;;;;;;5107029;28;20035;-73
2022/06/14 06:19:31;;;;;;;0.00;0.00;;;16.30;69.50;;;;;;5107649;28;20019;-73
2022/06/14 06:22:20;;;;;;;0.00;0.00;;;16.30;69.50;;;;;;5092584;28;20024;-73
2022/06/14 06:25:03;;;;;;;0.00;0.00;;;16.30;70.10;;;;;;5110589;28;20060;-73
2022/06/14 06:27:40;;;;;;;0.00;0.00;;;16.30;69.70;;;;;;5110462;28;20307;-71
2022/06/14 06:30:25;;;;;;;0.00;0.00;;;16.40;69.70;;;;;;5110366;28;20047;-72
2022/06/14 06:32:51;;;;;;;0.00;0.00;;;16.50;69.70;;;;;;5092054;28;20393;-71
2022/06/14 06:35:17;;;;;;;;;;;16.60;69.60;;;;;;5110595;28;20032;-72
2022/06/14 06:38:09;;;;;;;0.00;0.00;;;16.80;69.70;;;;;;5110642;28;19937;-74
2022/06/14 06:41:49;;;;;;;0.00;0.00;;;17.00;69.60;;;;;;5109586;28;20071;-72
2022/06/14 06:43:23;;;;;;;0.00;0.00;;;17.20;69.50;;;;;;5110296;28;20035;-72
2022/06/14 06:45:51;;;;;;;0.00;0.00;;;17.30;69.30;;;;;;5110410;28;20394;-73
2022/06/14 06:48:29;;;;;;;0.00;0.00;;;17.40;69.40;;;;;;5110266;28;20035;-72
2022/06/14 06:51:05;;;;;;;0.00;0.00;;;17.40;69.30;;;;;;5112587;28;20019;-73
2022/06/14 06:53:41;;;;;;;0.00;0.00;;;17.50;69.40;;;;;;5092506;28;20192;-72
2022/06/14 06:56:32;;;;;;;0.00;0.00;;;17.50;69.40;;;;;;5109665;28;20096;-73
2022/06/14 06:59:07;;;;;;;0.00;0.00;;;17.70;69.50;;;;;;5109259;28;20258;-73
2022/06/14 07:01:34;;;;;;;0.00;0.00;;;17.70;69.30;;;;;;5109686;28;20095;-73
2022/06/14 07:05:07;;;;;;;0.00;0.00;;;17.70;69.20;;;;;;5091026;28;20031;-73
2022/06/14 07:07:17;;;;;;;0.00;0.00;;;17.60;69.10;;;;;;5102067;28;20129;-71
2022/06/14 07:09:52;;;;;;;0.00;0.00;;;17.50;69.00;;;;;;5109802;28;20059;-71
2022/06/14 07:12:24;;;;;;;0.00;0.00;;;17.40;69.10;;;;;;5109556;28;20030;-73
2022/06/14 07:14:56;;;;;;;0.00;0.00;;;17.40;69.30;;;;;;5109033;28;20096;-73
2022/06/14 07:17:32;;;;;;;0.00;0.00;;;17.40;69.40;;;;;;5109448;28;20019;-73
2022/06/14 07:20:13;;;;;;;0.00;0.00;;;17.50;69.50;;;;;;5109755;28;20016;-73
2022/06/14 07:22:50;;;;;;;0.00;0.00;;;17.70;69.50;;;;;;5109451;28;20024;-71
2022/06/14 07:25:21;;;;;;;0.00;0.00;;;17.90;69.40;;;;;;5109341;28;20373;-71
2022/06/14 07:28:09;;;;;;;0.00;0.00;;;18.10;69.30;;;;;;5109145;28;20477;-75
2022/06/14 07:30:49;;;;;;;0.00;0.00;;;18.30;69.30;;;;;;5109312;28;20469;-73
2022/06/14 07:33:17;;;;;;;0.00;0.00;;;18.40;69.10;;;;;;5109227;28;20320;-73
2022/06/14 07:35:58;;;;;;;0.00;0.00;;;18.60;69.10;;;;;;5108835;28;20098;-74
2022/06/14 07:38:38;;;;;;;0.00;0.00;;;18.80;69.30;;;;;;5109188;28;20032;-74
2022/06/14 07:41:12;;;;;;;0.00;0.00;;;19.00;69.30;;;;;;5108924;28;20062;-74
2022/06/14 07:44:01;;;;;;;0.00;0.00;;;19.30;69.20;;;;;;5108737;28;20023;-73
2022/06/14 07:46:56;;;;;;;0.00;0.00;;;19.40;69.00;;;;;;5079436;28;20384;-74
2022/06/14 07:49:54;;;;;;;0.00;0.00;;;19.50;68.90;;;;;;5084967;28;20027;-72
2022/06/14 07:52:45;;;;;;;0.00;0.00;;;19.40;68.80;;;;;;5060744;28;20047;-72
2022/06/14 07:55:22;;;;;;;0.00;0.00;;;19.40;68.90;;;;;;5108440;28;20030;-72
2022/06/14 07:57:55;;;;;;;0.00;0.00;;;19.30;68.80;;;;;;5108122;28;20046;-71
2022/06/14 08:03:36;;;;;;;0.00;0.00;;;19.00;69.00;;;;;;5107791;28;20114;-73
2022/06/14 08:06:06;;;;;;;0.00;0.00;;;18.90;69.20;;;;;;5107605;28;20075;-74
2022/06/14 08:08:36;;;;;;;0.00;0.00;;;18.90;69.20;;;;;;5107723;28;20094;-74
2022/06/14 08:11:18;;;;;;;0.00;0.00;;;18.90;69.30;;;;;;5108252;28;20554;-73
2022/06/14 08:13:57;;;;;;;0.00;0.00;;;18.80;69.30;;;;;;5108097;28;20023;-72
2022/06/14 08:16:25;;;;;;;0.00;0.00;;;18.90;69.50;;;;;;5107404;28;20130;-73
2022/06/14 08:18:55;;;;;;;0.00;0.00;;;19.00;69.50;;;;;;5105028;28;20096;-72
2022/06/14 08:21:32;;;;;;;0.00;0.00;;;19.20;69.50;;;;;;5107197;28;20035;-74
2022/06/14 08:24:07;;;;;;;0.00;0.00;;;19.50;69.60;;;;;;5107537;28;20019;-74
2022/06/14 08:27:03;;;;;;;0.00;0.00;;;19.80;69.30;;;;;;5105030;28;20033;-71
2022/06/14 08:29:57;;;;;;;0.00;0.00;;;20.10;69.10;;;;;;5105899;28;20031;-73
2022/06/14 08:32:53;;;;;;;0.00;0.00;;;20.30;69.00;;;;;;5102671;28;20471;-73
2022/06/14 08:35:24;;;;;;;0.00;0.00;;;20.60;69.00;;;;;;5088261;28;20521;-74
2022/06/14 08:37:53;;;;;;;0.00;0.00;;;20.70;68.70;;;;;;5106923;28;20031;-73
2022/06/14 08:40:37;;;;;;;0.00;0.00;;;20.80;68.60;;;;;;5106913;28;20039;-72
2022/06/14 08:43:11;;;;;;;0.00;0.00;;;20.90;68.60;;;;;;5106516;28;20034;-73
2022/06/14 08:46:02;;;;;;;0.00;0.00;;;20.90;68.60;;;;;;5107208;28;20027;-71
2022/06/14 08:48:42;;;;;;;0.00;0.00;;;20.90;68.60;;;;;;5105001;28;20215;-74
2022/06/14 08:51:09;;;;;;;0.00;0.00;;;20.70;68.60;;;;;;5105299;28;20427;-71
2022/06/14 08:54:07;;;;;;;0.00;0.00;;;20.70;69.10;;;;;;5107125;28;20599;-74
2022/06/14 08:57:10;;;;;;;0.00;0.00;;;21.40;69.90;;;;;;5105875;28;20055;-72
2022/06/14 09:00:13;;;;;;;0.00;0.00;;;22.70;70.10;;;;;;5106099;28;20089;-72
2022/06/14 09:02:53;;;;;;;0.00;0.00;;;24.20;69.60;;;;;;5105269;28;20030;-72
2022/06/14 09:05:38;;;;;;;0.00;0.00;;;25.30;68.60;;;;;;5084180;28;20063;-75
2022/06/14 09:08:30;;;;;;;0.00;0.00;;;25.90;68.30;;;;;;5085641;28;20032;-73
2022/06/14 09:11:23;;;;;;;0.98;0.10;;;26.00;67.70;;;;;;5061888;28;20117;-70
2022/06/14 09:14:03;;;;;;;0.00;0.00;;;26.10;67.80;;;;;;5086062;28;20428;-73
2022/06/14 09:16:48;;;;;;;0.00;0.00;;;26.40;68.50;;;;;;5086374;28;20028;-73
2022/06/14 09:19:16;;;;;;;0.00;0.00;;;26.90;68.60;;;;;;5087585;28;20024;-73
2022/06/14 09:22:04;;;;;;;0.00;0.00;;;27.40;68.30;;;;;;5087893;28;20024;-73
2022/06/14 09:24:52;;;;;;;0.00;0.00;;;27.40;67.50;;;;;;5087591;28;20023;-73
2022/06/14 09:27:42;;;;;;;0.00;0.00;;;27.30;68.00;;;;;;5087325;28;20024;-74
2022/06/14 09:30:20;;;;;;;0.00;0.00;;;27.10;67.70;;;;;;5087576;28;20080;-73
2022/06/14 09:33:09;;;;;;;0.00;0.00;;;27.00;68.00;;;;;;5086361;28;20795;-72
2022/06/14 09:35:44;;;;;;;0.00;0.00;;;26.80;67.70;;;;;;5087152;28;20171;-74
2022/06/14 09:38:28;;;;;;;0.00;0.00;;;26.40;67.90;;;;;;5087366;28;20028;-74
2022/06/14 09:41:29;;;;;;;0.00;0.00;;;26.20;68.30;;;;;;5085190;28;20135;-73
2022/06/14 09:44:33;;;;;;;0.00;0.00;;;25.70;68.20;;;;;;5025108;28;20105;-73
2022/06/14 09:47:36;;;;;;;0.03;0.00;;;25.10;68.10;;;;;;5024241;28;20111;-73
2022/06/14 09:50:23;;;;;;;0.00;0.00;;;24.60;68.80;;;;;;5023951;28;20163;-73
2022/06/14 09:53:08;;;;;;;;;;;24.30;68.60;;;;;;5056696;28;20450;-74
2022/06/14 09:55:42;;;;;;;0.00;0.00;;;23.80;68.20;;;;;;5068815;28;19992;-73
2022/06/14 09:58:33;;;;;;;0.00;0.00;;;23.20;68.30;;;;;;5070872;28;20029;-73
2022/06/14 10:01:14;;;;;;;0.00;0.00;;;22.50;68.70;;;;;;5069461;28;20258;-74
2022/06/14 10:04:15;;;;;;;0.00;0.00;;;22.20;69.10;;;;;;5070675;28;20012;-73
2022/06/14 10:07:20;;;;;;;0.00;0.00;;;22.00;69.40;;;;;;5070786;28;20238;-72
2022/06/14 10:10:08;;;;;;;0.00;0.00;;;22.00;69.70;;;;;;5070680;28;20024;-72
2022/06/14 10:13:05;;;;;;;0.00;0.00;;;22.20;69.30;;;;;;5070768;28;20028;-73
2022/06/14 10:15:43;;;;;;;;;;;22.40;69.50;;;;;;5071372;28;20560;-72
2022/06/14 10:18:15;;;;;;;0.00;0.00;;;22.70;69.40;;;;;;5070368;28;19943;-71
2022/06/14 10:20:43;;;;;;;0.00;0.00;;;22.90;68.90;;;;;;5069745;28;20032;-72
2022/06/14 10:23:12;;;;;;;0.00;0.00;;;22.90;68.70;;;;;;5068297;28;20066;-71
2022/06/14 10:28:48;;;;;;;0.00;0.00;;;22.90;69.10;;;;;;5069856;28;20036;-71
2022/06/14 10:31:39;;;;;;;0.00;0.00;;;23.00;69.00;;;;;;5069054;28;20040;-71
2022/06/14 10:34:43;;;;;;;0.00;0.00;;;23.10;69.40;;;;;;5069621;28;20631;-71
2022/06/14 10:37:38;;;;;;;0.00;0.00;;;23.40;69.40;;;;;;5060558;28;20032;-72
2022/06/14 10:40:24;;;;;;;0.00;0.00;;;24.00;69.50;;;;;;5070323;28;20025;-74
2022/06/14 10:43:04;;;;;;;0.00;0.00;;;25.00;69.60;;;;;;5069643;28;20095;-71
2022/06/14 10:45:54;;;;;;;0.00;0.00;;;25.50;69.10;;;;;;5069698;28;20040;-73
2022/06/14 10:48:38;;;;;;;0.00;0.00;;;26.10;69.10;;;;;;5069495;28;20035;-73
2022/06/14 10:51:13;;;;;;;0.00;0.00;;;26.40;68.40;;;;;;5069959;28;20108;-73
2022/06/14 10:53:58;;;;;;;0.00;0.00;;;26.20;67.70;;;;;;5069388;28;20055;-73
2022/06/14 10:56:52;;;;;;;0.00;0.00;;;25.90;68.00;;;;;;5069666;28;20107;-71
2022/06/14 10:59:48;;;;;;;0.00;0.00;;;25.70;68.50;;;;;;5069591;28;20475;-73
2022/06/14 11:02:34;;;;;;;0.00;0.00;;;25.50;68.80;;;;;;5068374;28;20035;-74
2022/06/14 11:05:24;;;;;;;0.00;0.00;;;25.30;68.40;;;;;;5087962;28;20202;-73
2022/06/14 11:07:59;;;;;;;0.00;0.00;;;25.20;68.50;;;;;;5091547;28;20421;-73
2022/06/14 11:10:51;;;;;;;0.00;0.00;;;24.90;68.30;;;;;;5091256;28;20387;-72
2022/06/14 11:13:35;;;;;;;0.00;0.00;;;24.80;68.70;;;;;;5077401;28;20266;-72
2022/06/14 11:16:09;;;;;;;0.00;0.00;;;24.70;68.80;;;;;;5107194;28;20065;-73
2022/06/14 11:18:46;;;;;;;0.00;0.00;;;25.10;70.20;;;;;;5109876;28;20027;-75
2022/06/14 11:21:21;;;;;;;0.00;0.00;;;25.60;69.70;;;;;;5091481;28;20081;-74
2022/06/14 11:24:03;;;;;;;0.00;0.00;;;26.60;70.50;;;;;;5109547;28;20103;-74
2022/06/14 11:26:47;;;;;;;0.00;0.00;;;27.60;70.00;;;;;;5109287;28;20474;-73
2022/06/14 11:29:45;;;;;;;0.00;0.00;;;28.40;69.80;;;;;;5109312;28;20035;-71
2022/06/14 11:32:19;;;;;;;0.00;0.00;;;28.90;69.70;;;;;;5105007;28;20054;-71
2022/06/14 11:34:55;;;;;;;0.00;0.00;;;29.30;69.30;;;;;;5109097;28;20022;-72
2022/06/14 11:37:46;;;;;;;0.00;0.00;;;29.60;69.40;;;;;;5090829;28;20020;-72
2022/06/14 11:40:14;;;;;;;0.00;0.00;;;29.60;69.70;;;;;;5109295;28;20545;-65
2022/06/14 11:43:15;;;;;;;0.00;0.00;;;29.90;69.70;;;;;;5109416;28;20024;-72
2022/06/14 11:46:01;;;;;;;0.10;0.00;;;29.80;69.40;;;;;;5098896;28;20092;-75
2022/06/14 11:48:29;;;;;;;0.00;0.00;;;29.60;68.90;;;;;;5108279;28;20049;-73
2022/06/14 11:51:17;;;;;;;0.00;0.00;;;29.10;68.60;;;;;;5109111;28;20028;-73
2022/06/14 11:53:55;;;;;;;0.00;0.00;;;28.60;68.60;;;;;;5109131;28;20072;-74
2022/06/14 11:56:30;;;;;;;0.00;0.00;;;28.10;68.50;;;;;;5109011;28;20020;-74
2022/06/14 11:59:16;;;;;;;0.00;0.00;;;27.50;68.50;;;;;;5109294;28;20668;-71
2022/06/14 12:02:13;;;;;;;0.00;0.00;;;26.90;68.60;;;;;;5108761;28;20084;-72
2022/06/14 12:04:38;;;;;;;0.00;0.00;;;26.60;69.00;;;;;;5108395;28;20075;-72
2022/06/14 12:07:17;;;;;;;0.00;0.00;;;26.30;69.10;;;;;;5109041;28;20066;-69
2022/06/14 12:09:51;;;;;;;0.00;0.00;;;25.90;68.80;;;;;;5108672;28;20023;-71
2022/06/14 12:12:16;;;;;;;0.00;0.00;;;25.70;69.40;;;;;;5108275;28;20080;-75
2022/06/14 12:15:26;;;;;;;0.00;0.00;;;26.00;69.70;;;;;;5108730;28;20045;-73
2022/06/14 12:17:55;;;;;;;0.00;0.00;;;26.80;70.80;;;;;;5060917;28;20036;-74
2022/06/14 12:20:24;;;;;;;0.00;0.00;;;27.80;70.50;;;;;;5108565;28;20020;-73
2022/06/14 12:23:01;;;;;;;0.00;0.00;;;28.30;70.00;;;;;;5108538;28;20066;-72
2022/06/14 12:29:04;;;;;;;0.00;0.00;;;28.00;68.80;;;;;;5108820;28;20501;-73
2022/06/14 12:31:44;;;;;;;0.00;0.00;;;27.70;68.70;;;;;;5108721;28;20027;-74
2022/06/14 12:34:28;;;;;;;0.00;0.00;;;27.50;68.80;;;;;;5108507;28;20094;-73
2022/06/14 12:37:10;;;;;;;0.00;0.00;;;27.30;68.90;;;;;;5108531;28;20056;-73
2022/06/14 12:39:56;;;;;;;0.00;0.00;;;27.10;68.40;;;;;;5108530;28;20041;-73
2022/06/14 12:42:35;;;;;;;0.00;0.00;;;26.80;68.30;;;;;;5108259;28;20076;-73
2022/06/14 12:45:07;;;;;;;0.00;0.00;;;26.60;68.40;;;;;;5108171;28;20435;-74
2022/06/14 12:47:58;;;;;;;0.00;0.00;;;26.50;68.40;;;;;;5108087;28;20062;-72
2022/06/14 12:50:38;;;;;;;0.00;0.00;;;26.30;68.40;;;;;;5107915;28;20129;-73
2022/06/14 12:53:36;;;;;;;0.00;0.00;;;26.20;68.50;;;;;;5090263;28;20391;-73
2022/06/14 12:56:13;;;;;;;0.00;0.00;;;26.20;68.80;;;;;;5081934;28;20032;-72
2022/06/14 12:58:47;;;;;;;0.00;0.00;;;26.30;68.70;;;;;;5108384;28;20016;-74
2022/06/14 13:01:40;;;;;;;0.00;0.00;;;26.20;68.40;;;;;;5107917;28;20106;-73
2022/06/14 13:04:18;;;;;;;0.00;0.00;;;26.10;68.80;;;;;;5089256;28;20034;-73
2022/06/14 13:06:59;;;;;;;0.00;0.00;;;25.90;68.30;;;;;;5107974;28;20047;-73
2022/06/14 13:09:55;;;;;;;0.00;0.00;;;25.80;68.40;;;;;;5107597;28;20024;-72
2022/06/14 13:12:37;;;;;;;0.40;0.35;;;25.80;68.60;;;;;;5107404;28;20015;-72
2022/06/14 13:15:15;;;;;;;0.10;0.00;;;25.80;68.30;;;;;;5107705;28;20485;-72
2022/06/14 13:17:50;;;;;;;0.00;0.00;;;25.70;68.20;;;;;;5107872;28;20023;-72
2022/06/14 13:20:46;;;;;;;0.22;0.17;;;25.60;68.20;;;;;;5107717;28;20065;-72
2022/06/14 13:23:33;;;;;;;0.00;0.00;;;25.50;68.20;;;;;;5107468;28;20543;-73
2022/06/14 13:26:20;;;;;;;0.00;0.00;;;25.40;68.40;;;;;;5107815;28;20093;-72
2022/06/14 13:28:57;;;;;;;0.00;0.00;;;25.40;68.30;;;;;;5109917;28;20050;-74
2022/06/14 13:31:54;;;;;;;0.00;0.00;;;25.40;68.20;;;;;;5112694;28;20420;-73
2022/06/14 13:34:48;;;;;;;0.00;0.00;;;25.30;68.10;;;;;;5112141;28;20084;-73
2022/06/14 13:37:16;;;;;;;0.00;0.00;;;25.40;68.20;;;;;;5112140;28;20040;-71
2022/06/14 13:39:52;;;;;;;0.00;0.00;;;25.50;68.10;;;;;;5093758;28;20024;-71
2022/06/14 13:42:25;;;;;;;0.00;0.00;;;25.40;68.10;;;;;;5111242;28;20039;-71
2022/06/14 13:44:58;;;;;;;0.00;0.00;;;25.50;68.50;;;;;;5111177;28;20031;-73
2022/06/14 13:47:46;;;;;;;0.00;0.00;;;25.70;68.60;;;;;;5109718;28;20110;-72
2022/06/14 13:50:42;;;;;;;0.00;0.00;;;25.80;68.40;;;;;;5111295;28;20034;-72
2022/06/14 13:53:30;;;;;;;0.00;0.00;;;25.60;68.00;;;;;;5107423;28;20098;-72
2022/06/14 13:56:19;;;;;;;0.00;0.00;;;25.30;68.30;;;;;;5108395;28;20028;-72
2022/06/14 13:59:09;;;;;;;0.00;0.00;;;25.10;68.30;;;;;;5109424;28;20057;-73
2022/06/14 14:01:37;;;;;;;0.00;0.00;;;24.70;68.20;;;;;;5107651;28;20358;-72
2022/06/14 14:04:27;;;;;;;0.00;0.00;;;24.40;68.30;;;;;;5110317;28;20033;-72
2022/06/14 14:07:05;;;;;;;0.00;0.00;;;24.10;68.40;;;;;;5111590;28;20042;-72
2022/06/14 14:09:34;;;;;;;0.00;0.00;;;23.90;68.60;;;;;;5110631;28;20073;-72